createdAt,value
2023-04-16T00:02:01.631Z,-0.1
2023-04-16T00:07:07.666Z,-0.1
2023-04-16T00:12:13.758Z,-0.1
2023-04-16T00:17:19.894Z,-0.1
2023-04-16T00:22:26.046Z,-0.1
2023-04-16T00:27:32.197Z,-0.1
2023-04-16T00:32:38.361Z,-0.2
2023-04-16T00:37:44.450Z,-0.1
2023-04-16T00:42:50.583Z,-0.1
2023-04-16T00:47:57.766Z,-0.1
2023-04-16T00:53:02.876Z,-0.1
2023-04-16T00:58:09.010Z,-0.2
2023-04-16T01:03:15.331Z,-0.2
2023-04-16T01:08:21.311Z,-0.2
2023-04-16T01:13:27.424Z,-0.1
2023-04-16T01:18:33.644Z,-0.2
2023-04-16T01:23:39.711Z,-0.1
2023-04-16T01:28:45.892Z,-0.2
2023-04-16T01:33:51.996Z,-0.1
2023-04-16T01:38:58.150Z,0
2023-04-16T01:44:04.312Z,-0.1
2023-04-16T01:49:10.525Z,-0.1
2023-04-16T01:54:16.581Z,-0.1
2023-04-16T01:59:22.731Z,-0.3
2023-04-16T02:04:28.819Z,-0.3
2023-04-16T02:09:34.993Z,-0.2
2023-04-16T02:14:41.113Z,-0.2
2023-04-16T02:19:47.265Z,-0.1
2023-04-16T02:24:53.384Z,-0.1
2023-04-16T02:29:59.512Z,-0.2
2023-04-16T02:35:05.685Z,-0.2
2023-04-16T02:40:11.815Z,-0.2
2023-04-16T02:45:17.947Z,-0.2
2023-04-16T02:50:24.108Z,-0.3
2023-04-16T02:55:30.223Z,-0.2
2023-04-16T03:00:36.368Z,-0.2
2023-04-16T03:05:42.512Z,-0.3
2023-04-16T03:10:48.702Z,-0.2
2023-04-16T03:15:54.848Z,-0.4
2023-04-16T03:21:00.921Z,-0.3
2023-04-16T03:26:07.091Z,-0.2
2023-04-16T03:31:13.241Z,-0.4
2023-04-16T03:36:19.359Z,-0.4
2023-04-16T03:41:25.502Z,-0.5
2023-04-16T03:46:31.678Z,-0.4
2023-04-16T03:51:37.777Z,-0.3
2023-04-16T03:56:43.927Z,-0.5
2023-04-16T04:01:50.111Z,-0.6
2023-04-16T04:06:56.181Z,-0.5
2023-04-16T04:12:03.308Z,-0.5
2023-04-16T04:17:08.575Z,-0.6
2023-04-16T04:22:15.645Z,-0.6
2023-04-16T04:27:20.800Z,-0.5
2023-04-16T04:32:26.904Z,-0.6
2023-04-16T04:37:33.038Z,-0.6
2023-04-16T04:42:39.208Z,-0.6
2023-04-16T04:47:45.311Z,-0.5
2023-04-16T04:52:51.446Z,-0.6
2023-04-16T04:57:57.596Z,-0.5
2023-04-16T05:03:03.809Z,-0.5
2023-04-16T05:08:09.851Z,-0.5
2023-04-16T05:13:16.019Z,-0.4
2023-04-16T05:18:22.157Z,-0.4
2023-04-16T05:23:28.313Z,-0.4
2023-04-16T05:28:34.431Z,-0.4
2023-04-16T05:33:40.585Z,-0.3
2023-04-16T05:38:46.729Z,-0.1
2023-04-16T05:43:52.925Z,0
2023-04-16T05:48:59.045Z,0
2023-04-16T05:54:05.121Z,-0.1
2023-04-16T05:59:11.369Z,0
2023-04-16T06:04:17.493Z,0.1
2023-04-16T06:09:23.551Z,0
2023-04-16T06:14:29.673Z,0
2023-04-16T06:19:35.830Z,0.1
2023-04-16T06:24:41.963Z,0.4
2023-04-16T06:29:48.102Z,0.5
2023-04-16T06:34:54.240Z,0.8
2023-04-16T06:40:00.494Z,0.6
2023-04-16T06:45:06.540Z,1.1
2023-04-16T06:50:12.695Z,2.3
2023-04-16T06:55:18.831Z,4.4
2023-04-16T07:00:24.939Z,5.2
2023-04-16T07:05:31.081Z,4.2
2023-04-16T07:10:37.245Z,6.2
2023-04-16T07:15:43.434Z,6.7
2023-04-16T07:20:49.524Z,7.6
2023-04-16T07:25:55.693Z,6.6
2023-04-16T07:31:01.808Z,4.5
2023-04-16T07:36:07.948Z,4
2023-04-16T07:41:14.114Z,3.2
2023-04-16T07:46:20.293Z,2.7
2023-04-16T07:51:26.380Z,2.2
2023-04-16T07:56:32.495Z,1.9
2023-04-16T08:01:38.645Z,1.5
2023-04-16T08:06:44.800Z,1.9
2023-04-16T08:11:51.015Z,2.1
2023-04-16T08:16:57.058Z,2.1
2023-04-16T08:22:03.231Z,2.3
2023-04-16T08:27:18.259Z,2.1
2023-04-16T08:32:15.510Z,2.2
2023-04-16T08:37:21.643Z,2.2
2023-04-16T08:42:27.948Z,2
2023-04-16T08:47:33.938Z,1.7
2023-04-16T08:52:40.055Z,2.5
2023-04-16T08:57:46.170Z,3.3
2023-04-16T09:02:52.513Z,3.7
2023-04-16T09:07:58.486Z,4.1
2023-04-16T09:13:04.616Z,4.1
2023-04-16T09:18:10.743Z,3.6
2023-04-16T09:23:16.922Z,3.5
2023-04-16T09:28:23.015Z,3.4
2023-04-16T09:33:29.176Z,3.2
2023-04-16T09:38:35.326Z,3.1
2023-04-16T09:43:41.475Z,3
2023-04-16T09:48:47.598Z,3.1
2023-04-16T09:53:53.746Z,3.7
2023-04-16T09:58:59.895Z,3.6
2023-04-16T10:04:06.045Z,4
2023-04-16T10:09:12.350Z,3.8
2023-04-16T10:14:18.309Z,4.6
2023-04-16T10:19:24.447Z,4.8
2023-04-16T10:24:30.589Z,4.5
2023-04-16T10:29:36.729Z,5.5
2023-04-16T10:34:42.863Z,5.2
2023-04-16T10:39:49.058Z,5.2
2023-04-16T10:44:55.169Z,5.4
2023-04-16T10:50:01.323Z,5.9
2023-04-16T10:55:07.449Z,5.4
2023-04-16T11:00:13.573Z,5.7
2023-04-16T11:05:19.710Z,6.3
2023-04-16T11:10:25.860Z,6.6
2023-04-16T11:15:31.991Z,6.7
2023-04-16T11:20:38.113Z,6.2
2023-04-16T11:25:44.318Z,6.1
2023-04-16T11:30:50.421Z,5.9
2023-04-16T11:35:56.556Z,5.5
2023-04-16T11:41:02.691Z,5.8
2023-04-16T11:46:20.381Z,6.6
2023-04-16T11:51:14.978Z,7.3
2023-04-16T11:56:21.112Z,6.4
2023-04-16T12:01:27.243Z,5.8
2023-04-16T12:06:33.426Z,5.3
2023-04-16T12:11:39.574Z,6.5
2023-04-16T12:16:45.696Z,7.1
2023-04-16T12:21:51.860Z,6.6
2023-04-16T12:26:57.941Z,6.1
2023-04-16T12:32:04.114Z,5.4
2023-04-16T12:37:10.232Z,5.6
2023-04-16T12:42:16.386Z,5.8
2023-04-16T12:47:22.551Z,5.5
2023-04-16T12:52:28.669Z,5.5
2023-04-16T12:57:34.842Z,5.4
2023-04-16T13:02:41.061Z,5.3
2023-04-16T13:07:47.090Z,5
2023-04-16T13:12:53.242Z,5.3
2023-04-16T13:17:59.397Z,5.4
2023-04-16T13:23:05.534Z,5.7
2023-04-16T13:28:11.909Z,5.5
2023-04-16T13:33:17.777Z,5.7
2023-04-16T13:38:23.934Z,5.6
2023-04-16T13:43:30.072Z,5.7
2023-04-16T13:48:36.191Z,6
2023-04-16T13:53:52.596Z,6.1
2023-04-16T13:58:58.766Z,6.1
2023-04-16T14:04:04.986Z,6
2023-04-16T14:09:11.288Z,6.3
2023-04-16T14:14:17.165Z,6
2023-04-16T14:19:23.310Z,6.4
2023-04-16T14:24:29.473Z,5.4
2023-04-16T14:29:35.629Z,5.4
2023-04-16T14:34:41.754Z,5.6
2023-04-16T14:39:47.921Z,5.2
2023-04-16T14:44:54.044Z,5.5
2023-04-16T14:50:00.187Z,5.5
2023-04-16T14:55:06.354Z,6.2
2023-04-16T15:00:12.478Z,6.5
2023-04-16T15:05:18.595Z,6.6
2023-04-16T15:10:24.738Z,6.3
2023-04-16T15:15:30.895Z,6.1
2023-04-16T15:20:37.014Z,6.3
2023-04-16T15:25:43.166Z,6.2
2023-04-16T15:30:49.309Z,6
2023-04-16T15:35:55.448Z,5.9
2023-04-16T15:41:01.649Z,5.8
2023-04-16T15:46:07.782Z,5.9
2023-04-16T15:51:13.866Z,6
2023-04-16T15:56:20.016Z,5.6
2023-04-16T16:01:26.131Z,5.7
2023-04-16T16:06:32.276Z,5.6
2023-04-16T16:11:38.420Z,5.7
2023-04-16T16:16:44.562Z,5.3
2023-04-16T16:21:50.690Z,5.5
2023-04-16T16:26:56.856Z,5.5
2023-04-16T16:32:02.999Z,5.5
2023-04-16T16:37:09.142Z,5.1
2023-04-16T16:42:15.276Z,5.4
2023-04-16T16:47:21.406Z,4.9
2023-04-16T16:52:27.543Z,4.9
2023-04-16T16:57:33.693Z,4.9
2023-04-16T17:02:39.916Z,4.7
2023-04-16T17:07:45.977Z,4.6
2023-04-16T17:12:52.126Z,4.4
2023-04-16T17:17:58.255Z,4.2
2023-04-16T17:23:04.410Z,4
2023-04-16T17:28:10.515Z,3.9
2023-04-16T17:33:16.731Z,3.9
2023-04-16T17:38:22.799Z,3.8
2023-04-16T17:43:28.939Z,3.6
2023-04-16T17:48:35.096Z,3.5
2023-04-16T17:53:41.250Z,3.4
2023-04-16T17:58:47.361Z,3.4
2023-04-16T18:03:53.608Z,3.4
2023-04-16T18:08:59.663Z,3.3
2023-04-16T18:14:05.791Z,3.3
2023-04-16T18:19:11.920Z,2.9
2023-04-16T18:24:18.080Z,2.8
2023-04-16T18:29:25.172Z,2.7
2023-04-16T18:34:30.538Z,2.6
2023-04-16T18:39:36.491Z,2.7
2023-04-16T18:44:42.627Z,2.7
2023-04-16T18:49:48.754Z,2.7
2023-04-16T18:54:54.915Z,2.6
2023-04-16T19:00:01.030Z,2.6
2023-04-16T19:05:07.210Z,2.4
2023-04-16T19:10:13.340Z,2.2
2023-04-16T19:15:19.476Z,2
2023-04-16T19:20:25.623Z,1.8
2023-04-16T19:25:31.771Z,1.8
2023-04-16T19:30:37.878Z,1.8
2023-04-16T19:35:44.044Z,1.8
2023-04-16T19:40:50.183Z,1.8
2023-04-16T19:45:56.319Z,1.7
2023-04-16T19:51:02.448Z,1.6
2023-04-16T19:56:08.597Z,1.6
2023-04-16T20:01:14.768Z,1.7
2023-04-16T20:06:20.879Z,1.5
2023-04-16T20:11:27.023Z,1.4
2023-04-16T20:16:33.215Z,1.3
2023-04-16T20:21:39.287Z,1.2
2023-04-16T20:26:45.663Z,1.1
2023-04-16T20:31:51.602Z,1
2023-04-16T20:36:57.713Z,0.9
2023-04-16T20:42:03.840Z,0.7
2023-04-16T20:47:09.999Z,0.7
2023-04-16T20:52:16.149Z,0.6
2023-04-16T20:57:22.311Z,0.4
2023-04-16T21:02:28.779Z,0.3
2023-04-16T21:07:34.556Z,0.2
2023-04-16T21:12:40.702Z,0.3
2023-04-16T21:17:46.865Z,0.4
2023-04-16T21:22:52.963Z,0.3
2023-04-16T21:27:59.138Z,0.2
2023-04-16T21:33:05.319Z,0.2
2023-04-16T21:38:11.380Z,0.2
2023-04-16T21:43:17.526Z,0.1
2023-04-16T21:48:23.662Z,0.1
2023-04-16T21:53:29.809Z,0.1
2023-04-16T21:58:35.969Z,0.1
2023-04-16T22:03:42.160Z,0
2023-04-16T22:08:48.221Z,0
2023-04-16T22:13:54.380Z,0
2023-04-16T22:19:00.541Z,-0.1
2023-04-16T22:24:06.656Z,0
2023-04-16T22:29:12.987Z,0
2023-04-16T22:34:18.939Z,0
2023-04-16T22:39:25.064Z,-0.1
2023-04-16T22:44:31.246Z,0
2023-04-16T22:49:37.356Z,-0.2
2023-04-16T22:54:43.491Z,-0.3
2023-04-16T22:59:49.665Z,-0.3
2023-04-16T23:04:55.792Z,-0.4
2023-04-16T23:10:01.947Z,-0.4
2023-04-16T23:15:08.085Z,-0.4
2023-04-16T23:20:14.240Z,-0.3
2023-04-16T23:25:20.348Z,-0.4
2023-04-16T23:30:26.473Z,-0.3
2023-04-16T23:35:32.623Z,-0.5
2023-04-16T23:40:38.796Z,-0.6
2023-04-16T23:45:44.923Z,-0.8
2023-04-16T23:50:51.046Z,-0.8
2023-04-16T23:55:57.182Z,-0.8
